^^
Saratoga-Weather Station Historical Data
Daily Summary for July 7, 2021 Units:  Metric    English   Both
Daily Weekly Monthly Yearly Custom
  High: Low: Average:
Temperature: 22.1 °C 15.7 °C 18.2 °C
Dew Point: 16.3 °C 13.6 °C 14.5 °C
Humidity: 92% 64% 79%
Wind Speed: 16.3km/h 0km/h 2.4km/h
Wind Gust: 20.9km/h - -
Wind- - South
Pressure: 1006.4 hPa 1001.7 hPa -
Precipitation: 0.0 mm    
Historical Graphs
 
 
Tabular Data for July 7, 2021
Time Temperature Dew Point Pressure Wind Wind Speed Wind Gust Humidity Rainfall Rate (Hourly) solar
00:04 15.7 °C 14.4 °C 1006.1 hPa Calm     92% 0.0 mm 0 W/m2
00:09 15.8 °C 14.5 °C 1005.8 hPa Calm     92% 0.0 mm 0 W/m2
00:14 15.8 °C 14.5 °C 1006.1 hPa Calm     92% 0.0 mm 0 W/m2
00:19 15.9 °C 14.4 °C 1006.1 hPa Calm   1.6 km/h 91% 0.0 mm 0 W/m2
00:24 15.9 °C 14.4 °C 1006.1 hPa Calm   3.2 km/h 91% 0.0 mm 0 W/m2
00:29 16.1 °C 14.3 °C 1005.8 hPa ENE 1.4 km/h 3.2 km/h 89% 0.0 mm 0 W/m2
00:34 16.3 °C 14.5 °C 1005.8 hPa NNE 4.7 km/h 4.8 km/h 89% 0.0 mm 0 W/m2
00:39 16.5 °C 14.3 °C 1005.8 hPa NW 3.2 km/h 6.4 km/h 87% 0.0 mm 0 W/m2
00:44 16.8 °C 14.3 °C 1005.8 hPa West 3.2 km/h 3.2 km/h 85% 0.0 mm 0 W/m2
00:49 16.9 °C 14.4 °C 1005.8 hPa NNE 1.4 km/h 6.4 km/h 85% 0.0 mm 0 W/m2
00:54 17.1 °C 14.2 °C 1005.8 hPa NE 3.2 km/h 4.8 km/h 83% 0.0 mm 0 W/m2
01:14 17.4 °C 14.3 °C 1005.8 hPa Calm     82% 0.0 mm 0 W/m2
01:19 17.3 °C 14.2 °C 1005.8 hPa Calm   1.6 km/h 82% 0.0 mm 0 W/m2
01:24 17.3 °C 14 °C 1005.8 hPa SSW 3.2 km/h 3.2 km/h 81% 0.0 mm 0 W/m2
01:29 17.3 °C 14.2 °C 1005.8 hPa Calm   4.8 km/h 82% 0.0 mm 0 W/m2
01:50 17.2 °C 13.9 °C 1005.8 hPa Calm   3.2 km/h 81% 0.0 mm 0 W/m2
01:55 17.2 °C 13.9 °C 1005.4 hPa Calm   6.4 km/h 81% 0.0 mm 0 W/m2
02:00 17.2 °C 13.9 °C 1005.8 hPa Calm   4.8 km/h 81% 0.0 mm 0 W/m2
02:05 17.2 °C 14.1 °C 1005.4 hPa Calm   6.4 km/h 82% 0.0 mm 0 W/m2
02:10 17.2 °C 13.9 °C 1005.4 hPa ENE 4.7 km/h 4.8 km/h 81% 0.0 mm 0 W/m2
02:15 17.2 °C 13.9 °C 1005.4 hPa SW 1.4 km/h 6.4 km/h 81% 0.0 mm 0 W/m2
02:20 17.2 °C 13.9 °C 1005.4 hPa NW 1.4 km/h 6.4 km/h 81% 0.0 mm 0 W/m2
02:25 17.2 °C 14.1 °C 1005.4 hPa NNE 3.2 km/h 3.2 km/h 82% 0.0 mm 0 W/m2
02:30 17.2 °C 13.9 °C 1005.4 hPa East 1.4 km/h 4.8 km/h 81% 0.0 mm 0 W/m2
02:35 17.1 °C 14 °C 1005.4 hPa Calm     82% 0.0 mm 0 W/m2
02:40 16.9 °C 13.8 °C 1005.4 hPa Calm   1.6 km/h 82% 0.0 mm 0 W/m2
02:56 16.7 °C 13.8 °C 1005.4 hPa Calm   1.6 km/h 83% 0.0 mm 0 W/m2
03:01 16.7 °C 14 °C 1005.4 hPa Calm   1.6 km/h 84% 0.0 mm 0 W/m2
03:06 16.6 °C 13.9 °C 1005.4 hPa Calm   1.6 km/h 84% 0.0 mm 0 W/m2
03:11 16.4 °C 13.7 °C 1005.4 hPa Calm   4.8 km/h 84% 0.0 mm 0 W/m2
03:16 16.4 °C 13.9 °C 1005.4 hPa Calm     85% 0.0 mm 0 W/m2
03:33 16.1 °C 13.8 °C 1005.4 hPa Calm     86% 0.0 mm 0 W/m2
03:38 16.1 °C 13.8 °C 1005.4 hPa South 3.2 km/h 3.2 km/h 86% 0.0 mm 0 W/m2
03:43 16.1 °C 13.8 °C 1005.4 hPa Calm     86% 0.0 mm 0 W/m2
03:48 16.2 °C 13.9 °C 1005.4 hPa Calm     86% 0.0 mm 0 W/m2
03:53 16.2 °C 14 °C 1005.4 hPa Calm     87% 0.0 mm 0 W/m2
03:58 16.1 °C 13.9 °C 1005.1 hPa Calm   3.2 km/h 87% 0.0 mm 0 W/m2
04:03 16 °C 14 °C 1005.1 hPa North 1.4 km/h 1.6 km/h 88% 0.0 mm 0 W/m2
04:08 15.9 °C 13.9 °C 1005.1 hPa Calm     88% 0.0 mm 0 W/m2
04:13 15.8 °C 13.8 °C 1005.1 hPa Calm   1.6 km/h 88% 0.0 mm 0 W/m2
04:18 15.8 °C 13.8 °C 1005.1 hPa Calm   3.2 km/h 88% 0.0 mm 0 W/m2
04:23 15.8 °C 13.8 °C 1005.1 hPa NNW 1.4 km/h 3.2 km/h 88% 0.0 mm 0 W/m2
04:28 15.8 °C 13.8 °C 1005.1 hPa Calm   1.6 km/h 88% 0.0 mm 0 W/m2
04:33 15.8 °C 13.6 °C 1005.1 hPa NW 4.7 km/h 4.8 km/h 87% 0.0 mm 0 W/m2
04:38 16 °C 13.7 °C 1005.1 hPa NNW 1.4 km/h 4.8 km/h 86% 0.0 mm 0 W/m2
04:43 16.2 °C 13.9 °C 1005.1 hPa Calm   3.2 km/h 86% 0.0 mm 0 W/m2
04:48 16.3 °C 13.8 °C 1005.1 hPa NNW 3.2 km/h 3.2 km/h 85% 0.0 mm 0 W/m2
04:53 16.3 °C 13.8 °C 1005.1 hPa Calm   1.6 km/h 85% 0.0 mm 0 W/m2
04:58 16.3 °C 13.8 °C 1004.7 hPa Calm   1.6 km/h 85% 0.0 mm 0 W/m2
05:03 16.3 °C 13.8 °C 1004.7 hPa Calm   1.6 km/h 85% 0.0 mm 0 W/m2
05:08 16.3 °C 13.8 °C 1004.7 hPa NW 3.2 km/h 4.8 km/h 85% 0.0 mm 0 W/m2
05:13 16.3 °C 13.8 °C 1004.7 hPa Calm     85% 0.0 mm 0 W/m2
05:18 16.3 °C 13.8 °C 1004.7 hPa Calm   4.8 km/h 85% 0.0 mm 0 W/m2
05:23 16.2 °C 13.7 °C 1004.7 hPa Calm     85% 0.0 mm 0 W/m2
05:28 16.2 °C 13.9 °C 1004.7 hPa Calm     86% 0.0 mm 0 W/m2
05:33 16.1 °C 13.8 °C 1004.7 hPa Calm     86% 0.0 mm 0 W/m2
05:38 15.9 °C 13.7 °C 1004.7 hPa Calm   1.6 km/h 87% 0.0 mm 0 W/m2
05:43 15.9 °C 13.7 °C 1004.7 hPa Calm   3.2 km/h 87% 0.0 mm 0 W/m2
06:03 15.8 °C 13.6 °C 1004.7 hPa NW 3.2 km/h 4.8 km/h 87% 0.0 mm 0 W/m2
06:08 15.9 °C 13.7 °C 1004.4 hPa NW 1.4 km/h 3.2 km/h 87% 0.0 mm 0 W/m2
06:13 15.9 °C 13.6 °C 1004.7 hPa Calm   4.8 km/h 86% 0.0 mm 0 W/m2
06:18 16 °C 13.7 °C 1004.4 hPa Calm   3.2 km/h 86% 0.0 mm 0 W/m2
06:23 16 °C 13.7 °C 1004.4 hPa NE 3.2 km/h 3.2 km/h 86% 0.0 mm 0 W/m2
06:28 16.1 °C 13.8 °C 1004.7 hPa Calm   1.6 km/h 86% 0.0 mm 0 W/m2
06:33 16 °C 13.7 °C 1004.7 hPa North 1.4 km/h 1.6 km/h 86% 0.0 mm 5 W/m2
06:38 16 °C 13.7 °C 1004.7 hPa Calm   3.2 km/h 86% 0.0 mm 11 W/m2
06:43 16 °C 13.7 °C 1004.7 hPa Calm   1.6 km/h 86% 0.0 mm 14 W/m2
07:03 16.1 °C 13.8 °C 1004.4 hPa Calm   3.2 km/h 86% 0.0 mm 30 W/m2
07:08 16.1 °C 13.8 °C 1004.4 hPa North 1.4 km/h 1.6 km/h 86% 0.0 mm 35 W/m2
07:13 16.1 °C 13.6 °C 1004.4 hPa Calm   3.2 km/h 85% 0.0 mm 44 W/m2
07:18 16.1 °C 13.6 °C 1004.4 hPa Calm     85% 0.0 mm 44 W/m2
07:23 16.1 °C 13.8 °C 1004.4 hPa Calm   3.2 km/h 86% 0.0 mm 47 W/m2
07:28 16.1 °C 13.8 °C 1004.4 hPa WNW 1.4 km/h 1.6 km/h 86% 0.0 mm 44 W/m2
07:33 16.2 °C 13.9 °C 1004.4 hPa Calm     86% 0.0 mm 54 W/m2
07:38 16.2 °C 13.9 °C 1004.4 hPa NNW 3.2 km/h 4.8 km/h 86% 0.0 mm 53 W/m2
07:43 16.2 °C 13.9 °C 1004.4 hPa NW 3.2 km/h 4.8 km/h 86% 0.0 mm 63 W/m2
07:48 16.2 °C 13.7 °C 1004.4 hPa SW 1.4 km/h 1.6 km/h 85% 0.0 mm 90 W/m2
07:53 16.3 °C 13.8 °C 1004.4 hPa Calm   1.6 km/h 85% 0.0 mm 95 W/m2
07:58 16.3 °C 13.8 °C 1004.4 hPa North 3.2 km/h 4.8 km/h 85% 0.0 mm 98 W/m2
08:03 16.4 °C 13.9 °C 1004.4 hPa Calm   1.6 km/h 85% 0.0 mm 111 W/m2
08:08 16.5 °C 14 °C 1004.4 hPa North 1.4 km/h 1.6 km/h 85% 0.0 mm 123 W/m2
08:13 16.6 °C 14.1 °C 1004.4 hPa Calm   4.8 km/h 85% 0.0 mm 120 W/m2
08:18 16.6 °C 13.9 °C 1004.4 hPa West 1.4 km/h 3.2 km/h 84% 0.0 mm 127 W/m2
08:23 16.7 °C 14 °C 1004.4 hPa NW 1.4 km/h 3.2 km/h 84% 0.0 mm 137 W/m2
08:28 16.7 °C 14 °C 1004.4 hPa Calm   3.2 km/h 84% 0.0 mm 128 W/m2
08:33 16.8 °C 13.9 °C 1004.1 hPa Calm   4.8 km/h 83% 0.0 mm 139 W/m2
08:38 16.8 °C 13.9 °C 1004.1 hPa Calm   3.2 km/h 83% 0.0 mm 146 W/m2
08:43 16.9 °C 14 °C 1004.1 hPa Calm   3.2 km/h 83% 0.0 mm 156 W/m2
08:48 16.9 °C 14 °C 1004.1 hPa East 1.4 km/h 3.2 km/h 83% 0.0 mm 178 W/m2
08:53 17.1 °C 14.2 °C 1004.1 hPa NE 1.4 km/h 3.2 km/h 83% 0.0 mm 181 W/m2
08:58 17.2 °C 14.1 °C 1004.1 hPa Calm   1.6 km/h 82% 0.0 mm 174 W/m2
09:03 17.3 °C 14.2 °C 1004.1 hPa NE 1.4 km/h 4.8 km/h 82% 0.0 mm 171 W/m2
09:09 17.4 °C 14.5 °C 1004.1 hPa West 3.2 km/h 4.8 km/h 83% 0.0 mm 185 W/m2
09:14 17.4 °C 14.3 °C 1004.4 hPa NW 1.4 km/h 4.8 km/h 82% 0.0 mm 206 W/m2
09:19 17.4 °C 14.3 °C 1004.4 hPa West 4.7 km/h 6.4 km/h 82% 0.0 mm 283 W/m2
09:24 17.5 °C 14.4 °C 1004.4 hPa SSW 6.4 km/h 6.4 km/h 82% 0.0 mm 320 W/m2
09:29 17.6 °C 14.5 °C 1004.4 hPa North 1.4 km/h 3.2 km/h 82% 0.0 mm 339 W/m2
09:34 17.7 °C 14.4 °C 1004.4 hPa WNW 1.4 km/h 6.4 km/h 81% 0.0 mm 334 W/m2
09:39 17.8 °C 14.5 °C 1004.4 hPa NW 1.4 km/h 4.8 km/h 81% 0.0 mm 378 W/m2
09:44 18 °C 14.5 °C 1004.1 hPa Calm   6.4 km/h 80% 0.0 mm 313 W/m2
09:49 18.1 °C 14.6 °C 1004.1 hPa Calm   9.7 km/h 80% 0.0 mm 260 W/m2
09:54 18.2 °C 14.7 °C 1004.1 hPa NW 3.2 km/h 4.8 km/h 80% 0.0 mm 250 W/m2
09:59 18.2 °C 14.7 °C 1004.1 hPa WNW 6.4 km/h 12.9 km/h 80% 0.0 mm 262 W/m2
10:04 18.2 °C 14.5 °C 1004.1 hPa WNW 1.4 km/h 4.8 km/h 79% 0.0 mm 313 W/m2
10:09 18.3 °C 14.6 °C 1004.4 hPa West 4.7 km/h 12.9 km/h 79% 0.0 mm 334 W/m2
10:14 18.4 °C 14.7 °C 1004.4 hPa WNW 6.4 km/h 6.4 km/h 79% 0.0 mm 301 W/m2
10:19 18.3 °C 14.4 °C 1004.1 hPa South 3.2 km/h 11.3 km/h 78% 0.0 mm 260 W/m2
10:24 18.2 °C 14.3 °C 1004.4 hPa Calm   6.4 km/h 78% 0.0 mm 244 W/m2
10:29 18.2 °C 14.5 °C 1004.4 hPa WNW 3.2 km/h 9.7 km/h 79% 0.0 mm 243 W/m2
10:34 18.2 °C 14.5 °C 1004.4 hPa Calm   3.2 km/h 79% 0.0 mm 257 W/m2
10:39 18.2 °C 14.7 °C 1004.4 hPa Calm   3.2 km/h 80% 0.0 mm 269 W/m2
10:44 18.3 °C 14.6 °C 1004.1 hPa SSE 1.4 km/h 12.9 km/h 79% 0.0 mm 334 W/m2
10:49 18.3 °C 14.8 °C 1004.1 hPa NNW 1.4 km/h 3.2 km/h 80% 0.0 mm 322 W/m2
10:54 18.4 °C 14.9 °C 1004.1 hPa East 1.4 km/h 11.3 km/h 80% 0.0 mm 339 W/m2
10:59 18.6 °C 14.9 °C 1004.1 hPa NE 1.4 km/h 6.4 km/h 79% 0.0 mm 299 W/m2
11:04 18.7 °C 14.6 °C 1004.1 hPa NE 6.4 km/h 6.4 km/h 77% 0.0 mm 265 W/m2
11:09 18.5 °C 14.4 °C 1004.1 hPa WNW 4.7 km/h 9.7 km/h 77% 0.0 mm 322 W/m2
11:14 18.4 °C 14.3 °C 1004.1 hPa ESE 3.2 km/h 6.4 km/h 77% 0.0 mm 341 W/m2
11:19 18.5 °C 14.6 °C 1004.1 hPa Calm   4.8 km/h 78% 0.0 mm 297 W/m2
11:24 18.6 °C 14.3 °C 1004.1 hPa West 3.2 km/h 11.3 km/h 76% 0.0 mm 243 W/m2
11:29 18.6 °C 14.3 °C 1003.7 hPa WNW 3.2 km/h 4.8 km/h 76% 0.0 mm 315 W/m2
11:48 19 °C 14.7 °C 1003.7 hPa East 4.7 km/h 9.7 km/h 76% 0.0 mm 301 W/m2
11:53 19 °C 14.5 °C 1003.7 hPa NW 3.2 km/h 4.8 km/h 75% 0.0 mm 336 W/m2
11:58 19 °C 14.7 °C 1003.7 hPa NW 3.2 km/h 6.4 km/h 76% 0.0 mm 364 W/m2
12:03 19.1 °C 14.6 °C 1003.7 hPa NE 1.4 km/h 6.4 km/h 75% 0.0 mm 334 W/m2
12:08 19.1 °C 14.4 °C 1003.7 hPa NW 3.2 km/h 9.7 km/h 74% 0.0 mm 381 W/m2
12:13 19.2 °C 14.7 °C 1003.7 hPa WSW 1.4 km/h 8 km/h 75% 0.0 mm 454 W/m2
12:18 19.3 °C 15 °C 1003.7 hPa WNW 3.2 km/h 6.4 km/h 76% 0.0 mm 417 W/m2
12:23 19.7 °C 15.1 °C 1003.4 hPa NW 9.7 km/h 14.5 km/h 75% 0.0 mm 353 W/m2
12:28 19.6 °C 14.6 °C 1003.4 hPa WNW 1.4 km/h 6.4 km/h 73% 0.0 mm 276 W/m2
12:33 19.6 °C 14.6 °C 1003.4 hPa NW 4.7 km/h 12.9 km/h 73% 0.0 mm 237 W/m2
12:38 19.4 °C 14.6 °C 1003.4 hPa Calm   4.8 km/h 74% 0.0 mm 248 W/m2
12:43 19.4 °C 14.6 °C 1003.4 hPa WNW 4.7 km/h 12.9 km/h 74% 0.0 mm 167 W/m2
12:48 19.4 °C 14.4 °C 1003.4 hPa NNE 1.4 km/h 4.8 km/h 73% 0.0 mm 218 W/m2
13:09 19.1 °C 14.4 °C 1003.4 hPa WNW 4.7 km/h 4.8 km/h 74% 0.0 mm 274 W/m2
13:14 19.3 °C 14.8 °C 1003.4 hPa North 1.4 km/h 3.2 km/h 75% 0.0 mm 241 W/m2
13:19 19.4 °C 14.6 °C 1003.0 hPa ENE 4.7 km/h 4.8 km/h 74% 0.0 mm 424 W/m2
13:24 19.6 °C 14.6 °C 1003.0 hPa ESE 1.4 km/h 3.2 km/h 73% 0.0 mm 320 W/m2
13:29 19.7 °C 14.3 °C 1003.0 hPa East 6.4 km/h 12.9 km/h 71% 0.0 mm 297 W/m2
13:34 19.6 °C 14.6 °C 1003.0 hPa East 3.2 km/h 4.8 km/h 73% 0.0 mm 207 W/m2
13:39 19.6 °C 14.4 °C 1003.0 hPa NE 4.7 km/h 12.9 km/h 72% 0.0 mm 225 W/m2
13:58 19.3 °C 14.5 °C 1002.7 hPa ENE 6.4 km/h 8 km/h 74% 0.0 mm 169 W/m2
14:03 19.2 °C 14.5 °C 1002.7 hPa East 3.2 km/h 6.4 km/h 74% 0.0 mm 153 W/m2
14:08 19.2 °C 14.7 °C 1002.7 hPa Calm   4.8 km/h 75% 0.0 mm 299 W/m2
14:13 19.3 °C 14.8 °C 1002.7 hPa East 3.2 km/h 6.4 km/h 75% 0.0 mm 221 W/m2
14:19 19.3 °C 14.8 °C 1002.7 hPa NNW 3.2 km/h 6.4 km/h 75% 0.0 mm 202 W/m2
14:24 19.4 °C 14.6 °C 1002.7 hPa WSW 3.2 km/h 3.2 km/h 74% 0.0 mm 174 W/m2
14:29 19.4 °C 14.6 °C 1002.7 hPa NE 1.4 km/h 3.2 km/h 74% 0.0 mm 125 W/m2
14:34 19.3 °C 14.8 °C 1003.0 hPa WSW 1.4 km/h 1.6 km/h 75% 0.0 mm 44 W/m2
14:39 19.2 °C 14.5 °C 1003.0 hPa Calm   8 km/h 74% 0.0 mm 121 W/m2
14:44 19.1 °C 14.6 °C 1003.0 hPa Calm   4.8 km/h 75% 0.0 mm 207 W/m2
14:49 18.9 °C 14.8 °C 1003.0 hPa Calm   6.4 km/h 77% 0.0 mm 105 W/m2
14:54 18.8 °C 14.9 °C 1003.0 hPa NE 4.7 km/h 8 km/h 78% 0.0 mm 239 W/m2
14:59 18.7 °C 15 °C 1003.0 hPa NNW 3.2 km/h 4.8 km/h 79% 0.0 mm 401 W/m2
15:04 18.8 °C 15.3 °C 1003.0 hPa West 1.4 km/h 4.8 km/h 80% 0.0 mm 459 W/m2
15:09 18.9 °C 15 °C 1003.0 hPa ESE 1.4 km/h 6.4 km/h 78% 0.0 mm 376 W/m2
15:14 19.2 °C 15.3 °C 1003.0 hPa ESE 6.4 km/h 6.4 km/h 78% 0.0 mm 450 W/m2
15:19 19.6 °C 15.7 °C 1003.0 hPa NE 3.2 km/h 6.4 km/h 78% 0.0 mm 519 W/m2
15:24 20 °C 15.6 °C 1002.7 hPa East 4.7 km/h 6.4 km/h 76% 0.0 mm 478 W/m2
15:29 20.3 °C 15.7 °C 1002.7 hPa NNE 1.4 km/h 8 km/h 75% 0.0 mm 902 W/m2
15:48 20.9 °C 15 °C 1002.7 hPa West 1.4 km/h 6.4 km/h 69% 0.0 mm 487 W/m2
15:53 21.1 °C 15 °C 1002.7 hPa NNW 3.2 km/h 8 km/h 68% 0.0 mm 939 W/m2
15:58 21.3 °C 15.4 °C 1002.4 hPa NE 1.4 km/h 11.3 km/h 69% 0.0 mm 898 W/m2
16:03 21.4 °C 15.2 °C 1002.4 hPa NNW 1.4 km/h 6.4 km/h 68% 0.0 mm 821 W/m2
16:08 21.5 °C 14.9 °C 1002.4 hPa NNE 1.4 km/h 8 km/h 66% 0.0 mm 807 W/m2
16:13 21.7 °C 15.1 °C 1002.4 hPa NNE 3.2 km/h 9.7 km/h 66% 0.0 mm 795 W/m2
16:18 21.9 °C 15.5 °C 1002.4 hPa NW 1.4 km/h 4.8 km/h 67% 0.0 mm 874 W/m2
16:23 21.7 °C 15.1 °C 1002.4 hPa North 3.2 km/h 8 km/h 66% 0.0 mm 281 W/m2
16:28 21.7 °C 15.5 °C 1002.4 hPa WSW 4.7 km/h 8 km/h 68% 0.0 mm 533 W/m2
16:33 21.7 °C 15.1 °C 1002.4 hPa West 3.2 km/h 6.4 km/h 66% 0.0 mm 642 W/m2
16:38 22.1 °C 15.9 °C 1002.7 hPa NNW 4.7 km/h 8 km/h 68% 0.0 mm 847 W/m2
16:43 22.1 °C 15 °C 1002.7 hPa West 4.7 km/h 20.9 km/h 64% 0.0 mm 316 W/m2
16:48 21.8 °C 15.2 °C 1002.7 hPa NE 4.7 km/h 8 km/h 66% 0.0 mm 362 W/m2
16:53 21.6 °C 15 °C 1002.7 hPa West 6.4 km/h 8 km/h 66% 0.0 mm 176 W/m2
16:58 21.3 °C 14.9 °C 1002.7 hPa WSW 7.9 km/h 8 km/h 67% 0.0 mm 209 W/m2
17:03 21 °C 14.9 °C 1002.7 hPa Calm   3.2 km/h 68% 0.0 mm 200 W/m2
17:08 20.9 °C 15 °C 1002.4 hPa Calm   6.4 km/h 69% 0.0 mm 167 W/m2
17:13 20.7 °C 14.8 °C 1002.4 hPa WNW 4.7 km/h 6.4 km/h 69% 0.0 mm 185 W/m2
17:18 20.6 °C 14.7 °C 1002.4 hPa ENE 1.4 km/h 6.4 km/h 69% 0.0 mm 223 W/m2
17:23 20.6 °C 14.9 °C 1002.0 hPa ENE 3.2 km/h 8 km/h 70% 0.0 mm 276 W/m2
17:28 20.7 °C 15.3 °C 1002.0 hPa ENE 4.7 km/h 9.7 km/h 71% 0.0 mm 450 W/m2
17:33 20.9 °C 15.4 °C 1002.0 hPa ESE 6.4 km/h 14.5 km/h 71% 0.0 mm 522 W/m2
17:38 21.1 °C 15.6 °C 1002.0 hPa ENE 3.2 km/h 3.2 km/h 71% 0.0 mm 476 W/m2
17:43 21.2 °C 15.7 °C 1002.0 hPa East 7.9 km/h 14.5 km/h 71% 0.0 mm 450 W/m2
17:48 20.9 °C 15.7 °C 1002.0 hPa SE 4.7 km/h 12.9 km/h 72% 0.0 mm 485 W/m2
17:53 21.1 °C 16.1 °C 1002.0 hPa East 3.2 km/h 9.7 km/h 73% 0.0 mm 613 W/m2
17:58 21.3 °C 15.8 °C 1002.0 hPa East 16.3 km/h 17.7 km/h 71% 0.0 mm 524 W/m2
18:03 21.1 °C 15.9 °C 1002.0 hPa South 1.4 km/h 8 km/h 72% 0.0 mm 311 W/m2
18:08 21.1 °C 16.3 °C 1002.0 hPa NE 1.4 km/h 6.4 km/h 74% 0.0 mm 338 W/m2
18:13 21.1 °C 16.3 °C 1001.7 hPa NNE 3.2 km/h 6.4 km/h 74% 0.0 mm 220 W/m2
18:18 20.9 °C 16.1 °C 1002.0 hPa Calm   6.4 km/h 74% 0.0 mm 192 W/m2
18:23 20.8 °C 15.8 °C 1002.0 hPa ENE 7.9 km/h 11.3 km/h 73% 0.0 mm 323 W/m2
18:28 20.7 °C 15.9 °C 1002.0 hPa ENE 3.2 km/h 11.3 km/h 74% 0.0 mm 366 W/m2
18:33 20.7 °C 15.9 °C 1002.0 hPa East 6.4 km/h 9.7 km/h 74% 0.0 mm 478 W/m2
18:38 20.7 °C 16.1 °C 1002.0 hPa ESE 3.2 km/h 11.3 km/h 75% 0.0 mm 172 W/m2
18:43 20.5 °C 15.9 °C 1002.0 hPa ENE 11.1 km/h 11.3 km/h 75% 0.0 mm 139 W/m2
18:48 20.3 °C 15.9 °C 1002.0 hPa NNW 4.7 km/h 8 km/h 76% 0.0 mm 120 W/m2
18:53 20.2 °C 15.8 °C 1002.0 hPa West 1.4 km/h 6.4 km/h 76% 0.0 mm 86 W/m2
18:58 20.1 °C 15.9 °C 1002.4 hPa ENE 3.2 km/h 4.8 km/h 77% 0.0 mm 67 W/m2
19:03 19.9 °C 15.7 °C 1002.4 hPa North 4.7 km/h 6.4 km/h 77% 0.0 mm 46 W/m2
19:08 19.8 °C 15.9 °C 1002.0 hPa NNE 3.2 km/h 9.7 km/h 78% 0.0 mm 35 W/m2
19:13 19.6 °C 15.7 °C 1002.4 hPa Calm   6.4 km/h 78% 0.0 mm 46 W/m2
19:18 19.6 °C 15.9 °C 1002.4 hPa ENE 1.4 km/h 11.3 km/h 79% 0.0 mm 47 W/m2
19:23 19.4 °C 15.7 °C 1002.0 hPa NW 3.2 km/h 6.4 km/h 79% 0.0 mm 39 W/m2
19:28 19.3 °C 15.6 °C 1002.4 hPa North 3.2 km/h 9.7 km/h 79% 0.0 mm 37 W/m2
19:33 19.3 °C 15.6 °C 1002.4 hPa NNW 4.7 km/h 8 km/h 79% 0.0 mm 51 W/m2
19:38 19.6 °C 15.7 °C 1002.0 hPa ENE 6.4 km/h 11.3 km/h 78% 0.0 mm 193 W/m2
19:43 19.9 °C 15.7 °C 1002.0 hPa NW 3.2 km/h 4.8 km/h 77% 0.0 mm 137 W/m2
19:48 20.1 °C 15.7 °C 1002.0 hPa Calm   12.9 km/h 76% 0.0 mm 202 W/m2
19:53 20.3 °C 15.7 °C 1002.0 hPa NE 3.2 km/h 6.4 km/h 75% 0.0 mm 142 W/m2
19:58 20.3 °C 15.7 °C 1002.0 hPa NE 6.4 km/h 14.5 km/h 75% 0.0 mm 81 W/m2
20:03 19.9 °C 15.5 °C 1002.0 hPa WNW 7.9 km/h 19.3 km/h 76% 0.0 mm 109 W/m2
20:08 19.7 °C 15.3 °C 1002.4 hPa NNW 4.7 km/h 9.7 km/h 76% 0.0 mm 54 W/m2
20:13 19.6 °C 15.5 °C 1002.4 hPa West 6.4 km/h 14.5 km/h 77% 0.0 mm 54 W/m2
20:18 19.5 °C 15.4 °C 1002.4 hPa NW 6.4 km/h 11.3 km/h 77% 0.0 mm 54 W/m2
20:23 19.3 °C 15.4 °C 1002.4 hPa North 3.2 km/h 4.8 km/h 78% 0.0 mm 54 W/m2
20:28 19.3 °C 15.4 °C 1002.4 hPa North 3.2 km/h 8 km/h 78% 0.0 mm 39 W/m2
20:33 19.2 °C 15.3 °C 1002.7 hPa ENE 7.9 km/h 9.7 km/h 78% 0.0 mm 33 W/m2
20:54 18.9 °C 14.8 °C 1003.4 hPa NE 4.7 km/h 11.3 km/h 77% 0.0 mm 19 W/m2
20:59 18.9 °C 14.8 °C 1003.4 hPa NNE 4.7 km/h 4.8 km/h 77% 0.0 mm 11 W/m2
21:04 18.8 °C 14.3 °C 1003.4 hPa NNW 4.7 km/h 12.9 km/h 75% 0.0 mm 5 W/m2
21:09 18.8 °C 14.3 °C 1003.4 hPa North 13 km/h 12.9 km/h 75% 0.0 mm 0 W/m2
21:14 18.8 °C 14.3 °C 1003.4 hPa Calm   3.2 km/h 75% 0.0 mm 0 W/m2
21:19 18.7 °C 14.2 °C 1003.7 hPa ENE 4.7 km/h 4.8 km/h 75% 0.0 mm 0 W/m2
21:24 18.6 °C 14.1 °C 1004.1 hPa ENE 6.4 km/h 6.4 km/h 75% 0.0 mm 0 W/m2
21:29 18.4 °C 14.1 °C 1004.1 hPa ENE 4.7 km/h 11.3 km/h 76% 0.0 mm 0 W/m2
21:34 18.3 °C 14.2 °C 1004.1 hPa East 3.2 km/h 4.8 km/h 77% 0.0 mm 0 W/m2
21:39 18.2 °C 14.3 °C 1004.1 hPa WNW 3.2 km/h 9.7 km/h 78% 0.0 mm 0 W/m2
21:44 18.1 °C 14.2 °C 1004.4 hPa ESE 3.2 km/h 6.4 km/h 78% 0.0 mm 0 W/m2
22:05 17.3 °C 14 °C 1004.7 hPa SW 1.4 km/h 3.2 km/h 81% 0.0 mm 0 W/m2
22:10 17.3 °C 14 °C 1004.7 hPa Calm   1.6 km/h 81% 0.0 mm 0 W/m2
22:15 17.2 °C 13.9 °C 1004.7 hPa East 4.7 km/h 4.8 km/h 81% 0.0 mm 0 W/m2
22:20 17.1 °C 14 °C 1004.7 hPa WSW 1.4 km/h 3.2 km/h 82% 0.0 mm 0 W/m2
22:25 17 °C 13.9 °C 1005.1 hPa NNW 3.2 km/h 4.8 km/h 82% 0.0 mm 0 W/m2
22:30 17 °C 13.9 °C 1005.1 hPa WNW 1.4 km/h 4.8 km/h 82% 0.0 mm 0 W/m2
22:35 17 °C 14.1 °C 1005.1 hPa West 1.4 km/h 6.4 km/h 83% 0.0 mm 0 W/m2
22:55 16.9 °C 14 °C 1005.1 hPa SSW 3.2 km/h 11.3 km/h 83% 0.0 mm 0 W/m2
23:00 16.9 °C 14 °C 1005.4 hPa Calm   1.6 km/h 83% 0.0 mm 0 W/m2
23:05 16.9 °C 14.2 °C 1005.4 hPa NE 3.2 km/h 11.3 km/h 84% 0.0 mm 0 W/m2
23:10 16.8 °C 14.1 °C 1005.4 hPa NE 1.4 km/h 4.8 km/h 84% 0.0 mm 0 W/m2
23:15 16.8 °C 14.1 °C 1005.8 hPa ENE 3.2 km/h 4.8 km/h 84% 0.0 mm 0 W/m2
23:20 16.8 °C 14.1 °C 1005.8 hPa North 1.4 km/h 1.6 km/h 84% 0.0 mm 0 W/m2
23:39 16.7 °C 14.2 °C 1006.1 hPa NNW 1.4 km/h 6.4 km/h 85% 0.0 mm 0 W/m2
23:44 16.6 °C 14.2 °C 1006.1 hPa Calm   4.8 km/h 86% 0.0 mm 0 W/m2
23:49 16.6 °C 14.2 °C 1006.1 hPa Calm   3.2 km/h 86% 0.0 mm 0 W/m2
23:54 16.5 °C 14.1 °C 1006.1 hPa East 4.7 km/h 4.8 km/h 86% 0.0 mm 0 W/m2
23:59 16.4 °C 14.1 °C 1006.4 hPa East 1.4 km/h 3.2 km/h 86% 0.0 mm 0 W/m2
Juneau County Weather
Compliments of Weather Underground - 2 mb